sensor_id;sensor_type;location;lat;lon;timestamp;pressure;altitude;pressure_sealevel;temperature;humidity
43824;BME280;29470;53.550;9.926;2023-05-22T00:04:49;101321.84;;;21.86;60.45
43824;BME280;29470;53.550;9.926;2023-05-22T00:09:53;101317.50;;;21.87;60.33
43824;BME280;29470;53.550;9.926;2023-05-22T00:14:57;101315.75;;;21.87;59.99
43824;BME280;29470;53.550;9.926;2023-05-22T00:20:01;101320.81;;;21.81;59.90
43824;BME280;29470;53.550;9.926;2023-05-22T00:25:07;101305.56;;;21.45;61.06
43824;BME280;29470;53.550;9.926;2023-05-22T00:30:10;101310.88;;;21.46;60.76
43824;BME280;29470;53.550;9.926;2023-05-22T00:35:13;101305.03;;;21.29;61.20
43824;BME280;29470;53.550;9.926;2023-05-22T00:40:17;101301.53;;;21.56;60.13
43824;BME280;29470;53.550;9.926;2023-05-22T00:45:20;101299.44;;;21.46;60.63
43824;BME280;29470;53.550;9.926;2023-05-22T00:50:23;101306.91;;;21.59;60.03
43824;BME280;29470;53.550;9.926;2023-05-22T00:55:28;101301.94;;;21.67;59.48
43824;BME280;29470;53.550;9.926;2023-05-22T01:00:31;101297.53;;;21.40;60.25
43824;BME280;29470;53.550;9.926;2023-05-22T01:05:35;101298.41;;;21.67;58.95
43824;BME280;29470;53.550;9.926;2023-05-22T01:10:40;101298.72;;;21.50;59.58
43824;BME280;29470;53.550;9.926;2023-05-22T01:15:49;101292.81;;;21.57;58.61
43824;BME280;29470;53.550;9.926;2023-05-22T01:20:58;101283.38;;;21.11;60.43
43824;BME280;29470;53.550;9.926;2023-05-22T01:26:42;101285.00;;;21.33;59.56
43824;BME280;29470;53.550;9.926;2023-05-22T01:31:51;101286.91;;;21.11;60.24
43824;BME280;29470;53.550;9.926;2023-05-22T01:36:57;101285.94;;;21.35;59.48
43824;BME280;29470;53.550;9.926;2023-05-22T01:42:00;101287.19;;;20.95;60.41
43824;BME280;29470;53.550;9.926;2023-05-22T01:47:05;101288.03;;;20.94;60.47
43824;BME280;29470;53.550;9.926;2023-05-22T01:52:12;101284.78;;;21.01;59.87
43824;BME280;29470;53.550;9.926;2023-05-22T01:57:22;101281.38;;;21.03;59.79
43824;BME280;29470;53.550;9.926;2023-05-22T02:02:29;101292.00;;;21.07;59.98
43824;BME280;29470;53.550;9.926;2023-05-22T02:07:36;101283.59;;;20.91;60.67
43824;BME280;29470;53.550;9.926;2023-05-22T02:12:40;101273.94;;;20.92;59.82
43824;BME280;29470;53.550;9.926;2023-05-22T02:17:45;101279.06;;;20.87;60.21
43824;BME280;29470;53.550;9.926;2023-05-22T02:22:50;101263.44;;;20.67;60.65
43824;BME280;29470;53.550;9.926;2023-05-22T02:27:52;101260.63;;;20.63;60.87
43824;BME280;29470;53.550;9.926;2023-05-22T02:32:57;101262.31;;;20.13;62.40
43824;BME280;29470;53.550;9.926;2023-05-22T02:38:00;101258.44;;;20.04;62.75
43824;BME280;29470;53.550;9.926;2023-05-22T02:43:04;101258.50;;;20.05;63.01
43824;BME280;29470;53.550;9.926;2023-05-22T02:48:08;101259.03;;;20.19;62.24
43824;BME280;29470;53.550;9.926;2023-05-22T02:53:11;101247.63;;;20.43;61.44
43824;BME280;29470;53.550;9.926;2023-05-22T02:58:16;101251.22;;;20.45;60.97
43824;BME280;29470;53.550;9.926;2023-05-22T03:03:20;101241.38;;;20.15;61.81
43824;BME280;29470;53.550;9.926;2023-05-22T03:08:26;101234.50;;;20.19;61.54
43824;BME280;29470;53.550;9.926;2023-05-22T03:13:29;101227.91;;;20.06;61.92
43824;BME280;29470;53.550;9.926;2023-05-22T03:18:33;101230.53;;;20.06;61.22
43824;BME280;29470;53.550;9.926;2023-05-22T03:23:36;101226.69;;;20.20;60.37
43824;BME280;29470;53.550;9.926;2023-05-22T03:28:39;101228.50;;;19.98;60.49
43824;BME280;29470;53.550;9.926;2023-05-22T03:33:44;101225.03;;;20.22;59.45
43824;BME280;29470;53.550;9.926;2023-05-22T03:38:47;101224.50;;;20.33;58.35
43824;BME280;29470;53.550;9.926;2023-05-22T03:43:50;101217.63;;;20.36;58.35
43824;BME280;29470;53.550;9.926;2023-05-22T03:48:56;101217.53;;;20.33;57.84
43824;BME280;29470;53.550;9.926;2023-05-22T03:53:58;101215.88;;;20.37;57.33
43824;BME280;29470;53.550;9.926;2023-05-22T03:59:01;101221.56;;;20.48;56.78
43824;BME280;29470;53.550;9.926;2023-05-22T04:04:06;101229.22;;;20.41;56.29
43824;BME280;29470;53.550;9.926;2023-05-22T04:09:10;101224.41;;;20.54;55.58
43824;BME280;29470;53.550;9.926;2023-05-22T04:14:13;101234.38;;;20.87;54.57
43824;BME280;29470;53.550;9.926;2023-05-22T04:19:18;101220.69;;;20.97;54.23
43824;BME280;29470;53.550;9.926;2023-05-22T04:24:21;101216.63;;;20.81;54.54
43824;BME280;29470;53.550;9.926;2023-05-22T04:29:24;101217.00;;;20.68;54.64
43824;BME280;29470;53.550;9.926;2023-05-22T04:34:30;101220.28;;;20.85;53.96
43824;BME280;29470;53.550;9.926;2023-05-22T04:39:34;101221.88;;;20.81;53.60
43824;BME280;29470;53.550;9.926;2023-05-22T04:44:38;101209.69;;;21.09;52.87
43824;BME280;29470;53.550;9.926;2023-05-22T04:49:42;101213.78;;;21.01;53.00
43824;BME280;29470;53.550;9.926;2023-05-22T04:54:46;101215.16;;;21.15;52.05
43824;BME280;29470;53.550;9.926;2023-05-22T04:59:52;101217.25;;;21.26;51.50
43824;BME280;29470;53.550;9.926;2023-05-22T05:04:59;101207.97;;;21.65;51.03
43824;BME280;29470;53.550;9.926;2023-05-22T05:10:02;101210.09;;;21.76;50.14
43824;BME280;29470;53.550;9.926;2023-05-22T05:15:06;101208.66;;;21.59;50.34
43824;BME280;29470;53.550;9.926;2023-05-22T05:20:11;101216.50;;;21.85;49.40
43824;BME280;29470;53.550;9.926;2023-05-22T05:25:15;101201.56;;;21.84;49.43
43824;BME280;29470;53.550;9.926;2023-05-22T05:30:18;101199.41;;;22.01;48.66
43824;BME280;29470;53.550;9.926;2023-05-22T05:35:41;101198.47;;;21.99;49.01
43824;BME280;29470;53.550;9.926;2023-05-22T05:40:46;101197.59;;;22.30;47.94
43824;BME280;29470;53.550;9.926;2023-05-22T05:45:50;101201.41;;;22.40;47.49
43824;BME280;29470;53.550;9.926;2023-05-22T05:50:56;101195.66;;;22.54;46.53
43824;BME280;29470;53.550;9.926;2023-05-22T05:56:01;101194.22;;;23.00;45.98
43824;BME280;29470;53.550;9.926;2023-05-22T06:01:05;101195.19;;;23.04;45.95
43824;BME280;29470;53.550;9.926;2023-05-22T06:06:11;101197.66;;;22.96;46.01
43824;BME280;29470;53.550;9.926;2023-05-22T06:11:35;101198.16;;;22.49;46.64
43824;BME280;29470;53.550;9.926;2023-05-22T06:16:38;101198.13;;;22.47;46.33
43824;BME280;29470;53.550;9.926;2023-05-22T06:21:43;101193.22;;;22.95;45.68
43824;BME280;29470;53.550;9.926;2023-05-22T06:26:46;101192.00;;;22.82;45.83
43824;BME280;29470;53.550;9.926;2023-05-22T06:31:49;101188.09;;;22.66;46.21
43824;BME280;29470;53.550;9.926;2023-05-22T06:36:55;101191.34;;;23.24;44.99
43824;BME280;29470;53.550;9.926;2023-05-22T06:42:02;101188.53;;;23.96;43.67
43824;BME280;29470;53.550;9.926;2023-05-22T06:47:25;101194.78;;;24.89;42.28
43824;BME280;29470;53.550;9.926;2023-05-22T06:52:29;101200.94;;;24.42;42.77
43824;BME280;29470;53.550;9.926;2023-05-22T06:57:35;101201.91;;;24.93;42.09
43824;BME280;29470;53.550;9.926;2023-05-22T07:02:38;101203.13;;;25.71;40.33
43824;BME280;29470;53.550;9.926;2023-05-22T07:07:59;101205.56;;;26.22;39.13
43824;BME280;29470;53.550;9.926;2023-05-22T07:13:03;101202.78;;;26.11;39.21
43824;BME280;29470;53.550;9.926;2023-05-22T07:18:06;101203.78;;;27.02;37.67
43824;BME280;29470;53.550;9.926;2023-05-22T07:23:14;101200.50;;;27.38;37.19
43824;BME280;29470;53.550;9.926;2023-05-22T07:28:17;101194.91;;;28.75;34.79
43824;BME280;29470;53.550;9.926;2023-05-22T07:33:29;101184.75;;;30.40;32.17
43824;BME280;29470;53.550;9.926;2023-05-22T07:38:34;101180.56;;;31.28;30.70
43824;BME280;29470;53.550;9.926;2023-05-22T07:43:38;101175.50;;;33.56;28.29
43824;BME280;29470;53.550;9.926;2023-05-22T07:48:42;101175.50;;;34.41;27.33
43824;BME280;29470;53.550;9.926;2023-05-22T07:53:46;101174.00;;;32.32;29.28
43824;BME280;29470;53.550;9.926;2023-05-22T07:58:50;101161.19;;;33.08;28.48
43824;BME280;29470;53.550;9.926;2023-05-22T08:03:54;101162.38;;;33.86;26.97
43824;BME280;29470;53.550;9.926;2023-05-22T08:08:59;101160.63;;;34.26;26.81
43824;BME280;29470;53.550;9.926;2023-05-22T08:14:02;101158.38;;;33.63;27.71
43824;BME280;29470;53.550;9.926;2023-05-22T08:19:05;101166.19;;;31.40;29.80
43824;BME280;29470;53.550;9.926;2023-05-22T08:24:10;101154.09;;;29.07;33.41
43824;BME280;29470;53.550;9.926;2023-05-22T08:29:13;101148.50;;;27.83;35.34
43824;BME280;29470;53.550;9.926;2023-05-22T08:34:16;101150.13;;;27.53;35.60
43824;BME280;29470;53.550;9.926;2023-05-22T08:39:20;101153.91;;;26.69;36.93
43824;BME280;29470;53.550;9.926;2023-05-22T08:44:23;101154.66;;;26.55;36.88
43824;BME280;29470;53.550;9.926;2023-05-22T08:49:26;101142.31;;;26.60;36.95
43824;BME280;29470;53.550;9.926;2023-05-22T08:54:32;101147.13;;;27.02;36.28
43824;BME280;29470;53.550;9.926;2023-05-22T08:59:38;101140.53;;;27.83;35.90
43824;BME280;29470;53.550;9.926;2023-05-22T09:04:42;101135.13;;;27.57;36.11
43824;BME280;29470;53.550;9.926;2023-05-22T09:09:46;101131.72;;;27.86;35.74
43824;BME280;29470;53.550;9.926;2023-05-22T09:14:49;101123.63;;;27.58;36.01
43824;BME280;29470;53.550;9.926;2023-05-22T09:19:57;101130.09;;;28.53;35.33
43824;BME280;29470;53.550;9.926;2023-05-22T09:25:03;101125.53;;;28.01;35.07
43824;BME280;29470;53.550;9.926;2023-05-22T09:30:07;101119.03;;;27.35;36.18
43824;BME280;29470;53.550;9.926;2023-05-22T09:35:10;101118.47;;;27.95;35.83
43824;BME280;29470;53.550;9.926;2023-05-22T09:40:15;101106.97;;;28.02;35.10
43824;BME280;29470;53.550;9.926;2023-05-22T09:45:18;101107.66;;;27.59;35.77
43824;BME280;29470;53.550;9.926;2023-05-22T09:50:23;101105.56;;;27.02;36.62
43824;BME280;29470;53.550;9.926;2023-05-22T09:55:27;101095.88;;;27.12;36.33
43824;BME280;29470;53.550;9.926;2023-05-22T10:00:32;101096.91;;;27.34;36.27
43824;BME280;29470;53.550;9.926;2023-05-22T10:05:40;101091.63;;;27.47;35.25
43824;BME280;29470;53.550;9.926;2023-05-22T10:10:49;101091.09;;;28.41;33.58
43824;BME280;29470;53.550;9.926;2023-05-22T10:15:53;101077.78;;;28.57;33.03
43824;BME280;29470;53.550;9.926;2023-05-22T10:20:57;101066.25;;;28.90;32.78
43824;BME280;29470;53.550;9.926;2023-05-22T10:26:02;101083.03;;;28.07;34.15
43824;BME280;29470;53.550;9.926;2023-05-22T10:31:13;101069.81;;;28.18;33.64
43824;BME280;29470;53.550;9.926;2023-05-22T10:36:53;101058.25;;;28.17;33.50
43824;BME280;29470;53.550;9.926;2023-05-22T10:42:20;101059.97;;;28.03;34.12
43824;BME280;29470;53.550;9.926;2023-05-22T10:47:22;101051.19;;;28.77;33.20
43824;BME280;29470;53.550;9.926;2023-05-22T10:52:27;101054.72;;;28.73;33.18
43824;BME280;29470;53.550;9.926;2023-05-22T10:57:34;101043.06;;;29.25;32.55
43824;BME280;29470;53.550;9.926;2023-05-22T11:02:40;101034.19;;;29.26;32.49
43824;BME280;29470;53.550;9.926;2023-05-22T11:07:45;101028.97;;;28.93;32.92
43824;BME280;29470;53.550;9.926;2023-05-22T11:13:01;101027.19;;;29.09;33.18
43824;BME280;29470;53.550;9.926;2023-05-22T11:18:04;101023.44;;;29.60;32.63
43824;BME280;29470;53.550;9.926;2023-05-22T11:23:09;101017.00;;;29.98;31.78
43824;BME280;29470;53.550;9.926;2023-05-22T11:28:14;101014.53;;;29.66;32.21
43824;BME280;29470;53.550;9.926;2023-05-22T11:33:17;101014.19;;;30.16;31.20
43824;BME280;29470;53.550;9.926;2023-05-22T11:38:20;101009.00;;;30.03;31.23
43824;BME280;29470;53.550;9.926;2023-05-22T11:43:29;101004.06;;;30.61;30.55
43824;BME280;29470;53.550;9.926;2023-05-22T11:48:35;100996.75;;;30.79;30.12
43824;BME280;29470;53.550;9.926;2023-05-22T11:53:42;100991.75;;;30.41;30.79
43824;BME280;29470;53.550;9.926;2023-05-22T11:58:47;100982.50;;;29.75;30.86
43824;BME280;29470;53.550;9.926;2023-05-22T12:03:51;100976.56;;;30.51;30.48
43824;BME280;29470;53.550;9.926;2023-05-22T12:08:54;100977.84;;;30.07;30.72
43824;BME280;29470;53.550;9.926;2023-05-22T12:14:02;100970.25;;;29.38;31.33
43824;BME280;29470;53.550;9.926;2023-05-22T12:19:06;100957.03;;;30.45;30.55
43824;BME280;29470;53.550;9.926;2023-05-22T12:24:09;100962.38;;;30.46;30.25
43824;BME280;29470;53.550;9.926;2023-05-22T12:29:14;100954.53;;;30.27;29.97
43824;BME280;29470;53.550;9.926;2023-05-22T12:34:17;100960.41;;;29.54;30.91
43824;BME280;29470;53.550;9.926;2023-05-22T12:39:20;100955.25;;;29.14;31.15
43824;BME280;29470;53.550;9.926;2023-05-22T12:44:25;100959.47;;;29.62;31.08
43824;BME280;29470;53.550;9.926;2023-05-22T12:49:27;100947.78;;;29.80;31.02
43824;BME280;29470;53.550;9.926;2023-05-22T12:54:30;100937.38;;;29.44;30.71
43824;BME280;29470;53.550;9.926;2023-05-22T12:59:34;100919.66;;;30.48;30.03
43824;BME280;29470;53.550;9.926;2023-05-22T13:04:38;100917.88;;;30.47;29.82
43824;BME280;29470;53.550;9.926;2023-05-22T13:09:41;100910.13;;;30.22;29.34
43824;BME280;29470;53.550;9.926;2023-05-22T13:14:45;100917.25;;;30.20;28.97
43824;BME280;29470;53.550;9.926;2023-05-22T13:19:48;100911.59;;;30.51;29.30
43824;BME280;29470;53.550;9.926;2023-05-22T13:24:51;100906.63;;;30.99;28.85
43824;BME280;29470;53.550;9.926;2023-05-22T13:29:56;100902.19;;;30.97;28.34
43824;BME280;29470;53.550;9.926;2023-05-22T13:34:59;100890.34;;;31.21;27.94
43824;BME280;29470;53.550;9.926;2023-05-22T13:40:01;100880.84;;;30.17;28.88
43824;BME280;29470;53.550;9.926;2023-05-22T13:45:07;100871.09;;;30.11;28.70
43824;BME280;29470;53.550;9.926;2023-05-22T13:50:10;100863.50;;;30.57;28.63
43824;BME280;29470;53.550;9.926;2023-05-22T13:55:13;100855.31;;;30.76;29.03
43824;BME280;29470;53.550;9.926;2023-05-22T14:00:18;100841.50;;;31.08;28.24
43824;BME280;29470;53.550;9.926;2023-05-22T14:05:22;100841.50;;;30.36;28.74
43824;BME280;29470;53.550;9.926;2023-05-22T14:10:25;100845.28;;;30.18;28.58
43824;BME280;29470;53.550;9.926;2023-05-22T14:15:29;100837.59;;;30.70;28.47
43824;BME280;29470;53.550;9.926;2023-05-22T14:20:32;100823.47;;;30.62;28.04
43824;BME280;29470;53.550;9.926;2023-05-22T14:25:35;100828.75;;;30.65;27.55
43824;BME280;29470;53.550;9.926;2023-05-22T14:30:40;100823.47;;;30.62;27.00
43824;BME280;29470;53.550;9.926;2023-05-22T14:35:43;100816.59;;;30.39;27.10
43824;BME280;29470;53.550;9.926;2023-05-22T14:40:46;100805.56;;;29.89;28.30
43824;BME280;29470;53.550;9.926;2023-05-22T14:45:50;100809.63;;;30.25;27.96
43824;BME280;29470;53.550;9.926;2023-05-22T14:50:53;100807.31;;;29.90;28.01
43824;BME280;29470;53.550;9.926;2023-05-22T14:55:56;100812.00;;;29.61;28.02
43824;BME280;29470;53.550;9.926;2023-05-22T15:01:02;100821.00;;;29.48;28.33
43824;BME280;29470;53.550;9.926;2023-05-22T15:06:05;100831.97;;;28.98;28.86
43824;BME280;29470;53.550;9.926;2023-05-22T15:11:08;100829.25;;;29.09;28.52
43824;BME280;29470;53.550;9.926;2023-05-22T15:16:12;100883.47;;;28.94;31.51
43824;BME280;29470;53.550;9.926;2023-05-22T15:21:15;100880.03;;;27.30;39.27
43824;BME280;29470;53.550;9.926;2023-05-22T15:26:18;100882.19;;;26.20;42.96
43824;BME280;29470;53.550;9.926;2023-05-22T15:31:23;100899.22;;;25.53;50.02
43824;BME280;29470;53.550;9.926;2023-05-22T15:36:27;100899.22;;;23.66;61.96
43824;BME280;29470;53.550;9.926;2023-05-22T15:41:31;100927.28;;;23.17;69.10
43824;BME280;29470;53.550;9.926;2023-05-22T15:46:35;100942.63;;;22.54;74.49
43824;BME280;29470;53.550;9.926;2023-05-22T15:51:39;100935.91;;;23.09;75.81
43824;BME280;29470;53.550;9.926;2023-05-22T15:56:42;100948.63;;;22.46;79.02
43824;BME280;29470;53.550;9.926;2023-05-22T16:01:46;100951.63;;;22.63;80.08
43824;BME280;29470;53.550;9.926;2023-05-22T16:06:50;100960.56;;;22.33;82.72
43824;BME280;29470;53.550;9.926;2023-05-22T16:11:53;100956.22;;;22.35;86.92
43824;BME280;29470;53.550;9.926;2023-05-22T16:16:57;100953.22;;;22.95;85.19
43824;BME280;29470;53.550;9.926;2023-05-22T16:22:00;100919.19;;;22.66;85.69
43824;BME280;29470;53.550;9.926;2023-05-22T16:27:04;100902.28;;;22.99;83.06
43824;BME280;29470;53.550;9.926;2023-05-22T16:32:09;100904.13;;;23.02;78.31
43824;BME280;29470;53.550;9.926;2023-05-22T16:37:12;100908.06;;;23.22;75.95
43824;BME280;29470;53.550;9.926;2023-05-22T16:42:15;100905.41;;;23.22;74.51
43824;BME280;29470;53.550;9.926;2023-05-22T16:47:20;100914.44;;;23.32;76.75
43824;BME280;29470;53.550;9.926;2023-05-22T16:52:23;100908.16;;;22.84;75.13
43824;BME280;29470;53.550;9.926;2023-05-22T16:57:26;100897.72;;;22.90;75.83
43824;BME280;29470;53.550;9.926;2023-05-22T17:02:31;100902.47;;;23.08;74.18
43824;BME280;29470;53.550;9.926;2023-05-22T17:07:34;100907.00;;;22.71;78.06
43824;BME280;29470;53.550;9.926;2023-05-22T17:12:37;100905.97;;;23.06;79.11
43824;BME280;29470;53.550;9.926;2023-05-22T17:17:41;100880.84;;;22.80;80.69
43824;BME280;29470;53.550;9.926;2023-05-22T17:22:44;100884.53;;;22.49;81.81
43824;BME280;29470;53.550;9.926;2023-05-22T17:27:47;100886.50;;;22.58;80.29
43824;BME280;29470;53.550;9.926;2023-05-22T17:32:51;100908.47;;;22.58;77.85
43824;BME280;29470;53.550;9.926;2023-05-22T17:50:16;100904.09;;;22.59;75.80
43824;BME280;29470;53.550;9.926;2023-05-22T17:55:21;100893.47;;;22.19;75.88
43824;BME280;29470;53.550;9.926;2023-05-22T18:00:24;100899.09;;;21.96;79.02
43824;BME280;29470;53.550;9.926;2023-05-22T18:05:28;100896.94;;;21.81;78.54
43824;BME280;29470;53.550;9.926;2023-05-22T18:10:31;100892.63;;;22.20;78.45
43824;BME280;29470;53.550;9.926;2023-05-22T18:15:34;100908.78;;;21.99;79.28
43824;BME280;29470;53.550;9.926;2023-05-22T18:20:39;100905.31;;;22.00;79.31
43824;BME280;29470;53.550;9.926;2023-05-22T18:26:15;100901.41;;;21.52;79.03
43824;BME280;29470;53.550;9.926;2023-05-22T18:31:18;100893.63;;;21.88;77.93
43824;BME280;29470;53.550;9.926;2023-05-22T18:36:23;100884.09;;;21.93;78.31
43824;BME280;29470;53.550;9.926;2023-05-22T18:41:37;100862.84;;;22.22;77.96
43824;BME280;29470;53.550;9.926;2023-05-22T18:46:40;100865.25;;;22.13;77.36
43824;BME280;29470;53.550;9.926;2023-05-22T18:51:52;100852.63;;;21.98;76.30
43824;BME280;29470;53.550;9.926;2023-05-22T18:56:56;100866.97;;;21.76;77.45
43824;BME280;29470;53.550;9.926;2023-05-22T19:01:59;100864.94;;;21.64;77.12
43824;BME280;29470;53.550;9.926;2023-05-22T19:07:03;100911.28;;;21.60;77.15
43824;BME280;29470;53.550;9.926;2023-05-22T19:12:09;100996.91;;;21.47;80.68
43824;BME280;29470;53.550;9.926;2023-05-22T19:17:13;101047.38;;;21.63;82.66
43824;BME280;29470;53.550;9.926;2023-05-22T19:22:18;101043.44;;;21.79;80.68
43824;BME280;29470;53.550;9.926;2023-05-22T19:27:21;101049.53;;;21.76;82.46
43824;BME280;29470;53.550;9.926;2023-05-22T19:33:17;101069.31;;;21.34;86.31
43824;BME280;29470;53.550;9.926;2023-05-22T19:38:06;101078.28;;;21.12;87.18
43824;BME280;29470;53.550;9.926;2023-05-22T19:43:15;101090.28;;;20.77;93.21
43824;BME280;29470;53.550;9.926;2023-05-22T19:48:56;101091.16;;;20.77;96.89
43824;BME280;29470;53.550;9.926;2023-05-22T19:54:44;101084.31;;;20.29;100.00
43824;BME280;29470;53.550;9.926;2023-05-22T20:12:03;101068.97;;;20.69;100.00
43824;BME280;29470;53.550;9.926;2023-05-22T20:17:06;101058.66;;;20.75;100.00
43824;BME280;29470;53.550;9.926;2023-05-22T20:22:11;101045.03;;;20.59;99.61
43824;BME280;29470;53.550;9.926;2023-05-22T20:27:16;101031.69;;;20.53;96.67
43824;BME280;29470;53.550;9.926;2023-05-22T20:32:18;101034.41;;;20.56;98.42
43824;BME280;29470;53.550;9.926;2023-05-22T20:37:21;101028.97;;;20.50;98.96
43824;BME280;29470;53.550;9.926;2023-05-22T20:42:28;101034.59;;;20.35;98.93
43824;BME280;29470;53.550;9.926;2023-05-22T20:47:33;101037.72;;;20.23;100.00
43824;BME280;29470;53.550;9.926;2023-05-22T20:52:36;101030.81;;;20.27;99.54
43824;BME280;29470;53.550;9.926;2023-05-22T20:57:41;101013.78;;;20.41;99.84
43824;BME280;29470;53.550;9.926;2023-05-22T21:02:44;100996.56;;;20.24;100.00
43824;BME280;29470;53.550;9.926;2023-05-22T21:07:47;100998.84;;;20.13;99.67
43824;BME280;29470;53.550;9.926;2023-05-22T21:12:51;100993.59;;;20.13;98.97
43824;BME280;29470;53.550;9.926;2023-05-22T21:17:54;100987.97;;;20.28;95.69
43824;BME280;29470;53.550;9.926;2023-05-22T21:22:57;100973.03;;;20.27;95.75
43824;BME280;29470;53.550;9.926;2023-05-22T21:28:01;100978.91;;;20.18;95.63
43824;BME280;29470;53.550;9.926;2023-05-22T21:33:04;100975.63;;;20.53;92.48
43824;BME280;29470;53.550;9.926;2023-05-22T21:38:07;100968.53;;;20.50;94.72
43824;BME280;29470;53.550;9.926;2023-05-22T21:43:11;100983.88;;;20.38;95.26
43824;BME280;29470;53.550;9.926;2023-05-22T21:48:16;100968.19;;;20.39;96.32
43824;BME280;29470;53.550;9.926;2023-05-22T21:53:19;100960.94;;;20.30;97.18
43824;BME280;29470;53.550;9.926;2023-05-22T21:58:24;100966.50;;;20.14;100.00
43824;BME280;29470;53.550;9.926;2023-05-22T22:03:27;100962.94;;;20.12;99.85
43824;BME280;29470;53.550;9.926;2023-05-22T22:08:30;100961.00;;;20.34;98.62
43824;BME280;29470;53.550;9.926;2023-05-22T22:13:34;100948.63;;;20.29;98.51
43824;BME280;29470;53.550;9.926;2023-05-22T22:18:37;100941.44;;;19.98;100.00
43824;BME280;29470;53.550;9.926;2023-05-22T22:23:41;100921.47;;;20.01;99.38
43824;BME280;29470;53.550;9.926;2023-05-22T22:28:45;100908.56;;;19.83;100.00
43824;BME280;29470;53.550;9.926;2023-05-22T22:33:48;100908.44;;;19.80;100.00
43824;BME280;29470;53.550;9.926;2023-05-22T22:38:51;100904.22;;;20.10;97.77
43824;BME280;29470;53.550;9.926;2023-05-22T22:43:55;100899.56;;;20.28;96.32
43824;BME280;29470;53.550;9.926;2023-05-22T22:48:58;100891.66;;;19.99;98.21
43824;BME280;29470;53.550;9.926;2023-05-22T22:54:02;100891.03;;;20.36;94.52
43824;BME280;29470;53.550;9.926;2023-05-22T22:59:06;100896.34;;;20.37;94.36
43824;BME280;29470;53.550;9.926;2023-05-22T23:04:09;100894.47;;;20.33;94.18
43824;BME280;29470;53.550;9.926;2023-05-22T23:09:13;100889.16;;;20.31;94.49
43824;BME280;29470;53.550;9.926;2023-05-22T23:14:17;100892.69;;;20.34;95.81
43824;BME280;29470;53.550;9.926;2023-05-22T23:19:20;100912.41;;;19.67;100.00
43824;BME280;29470;53.550;9.926;2023-05-22T23:24:23;100908.41;;;20.30;98.57
43824;BME280;29470;53.550;9.926;2023-05-22T23:29:28;100903.84;;;19.73;100.00
43824;BME280;29470;53.550;9.926;2023-05-22T23:34:31;100903.19;;;20.05;100.00
43824;BME280;29470;53.550;9.926;2023-05-22T23:39:33;100896.19;;;20.05;100.00
43824;BME280;29470;53.550;9.926;2023-05-22T23:44:38;100888.78;;;20.19;100.00
43824;BME280;29470;53.550;9.926;2023-05-22T23:49:41;100896.06;;;19.76;100.00
43824;BME280;29470;53.550;9.926;2023-05-22T23:54:44;100904.38;;;19.38;100.00
43824;BME280;29470;53.550;9.926;2023-05-22T23:59:48;100896.47;;;19.88;100.00
